Time;durP1;ratioP1;P1;durP2;ratioP2;P2;SDS_P1;SDS_P2;PMS_P1;PMS_P2;Temp;Humidity;BMP_temperature;BMP_pressure;BME280_temperature;BME280_humidity;BME280_pressure;Samples;Min_cycle;Max_cycle;Signal;HPM_P1;HPM_P2
2023/08/31 00:02:19;;;;;;;350.93;312.33;;;;;;;;;;5073303;28;20972;-49
2023/08/31 00:04:45;;;;;;;364.43;326.10;;;;;;;;;;5073671;28;20902;-49
2023/08/31 00:07:11;;;;;;;362.63;324.63;;;;;;;;;;5073224;28;20415;-48
2023/08/31 00:09:37;;;;;;;349.90;311.90;;;;;;;;;;5073206;28;20902;-48
2023/08/31 00:12:03;;;;;;;340.87;303.70;;;;;;;;;;5073266;28;20525;-50
2023/08/31 00:14:29;;;;;;;364.00;325.87;;;;;;;;;;5073006;28;20434;-48
2023/08/31 00:16:57;;;;;;;359.43;321.23;;;;;;;;;;5073061;28;21004;-49
2023/08/31 00:19:23;;;;;;;368.87;330.57;;;;;;;;;;5073051;28;20923;-50
2023/08/31 00:21:49;;;;;;;360.80;322.77;;;;;;;;;;5073081;28;20475;-49
2023/08/31 00:24:15;;;;;;;364.80;326.33;;;;;;;;;;5072898;28;20999;-49
2023/08/31 00:26:42;;;;;;;370.17;331.57;;;;;;;;;;5073055;28;20418;-50
2023/08/31 00:29:11;;;;;;;357.50;319.40;;;;;;;;;;5069393;28;20483;-49
2023/08/31 00:31:37;;;;;;;361.63;323.53;;;;;;;;;;5072402;28;20456;-49
2023/08/31 00:34:04;;;;;;;365.83;327.40;;;;;;;;;;5073012;28;20431;-48
2023/08/31 00:36:33;;;;;;;352.93;314.90;;;;;;;;;;5076941;28;20418;-48
2023/08/31 00:39:05;;;;;;;358.73;320.33;;;;;;;;;;5072631;28;20432;-48
2023/08/31 00:41:31;;;;;;;363.50;325.37;;;;;;;;;;5072168;28;20760;-49
2023/08/31 00:43:58;;;;;;;372.23;333.63;;;;;;;;;;5072535;28;20975;-48
2023/08/31 00:46:24;;;;;;;361.37;322.97;;;;;;;;;;5072475;28;20426;-48
2023/08/31 00:48:50;;;;;;;361.67;323.17;;;;;;;;;;5072494;28;20903;-49
2023/08/31 00:51:17;;;;;;;375.67;336.73;;;;;;;;;;5072202;28;20452;-48
2023/08/31 00:53:43;;;;;;;365.40;326.80;;;;;;;;;;5072371;28;20448;-48
2023/08/31 00:56:09;;;;;;;355.10;317.20;;;;;;;;;;5072308;28;20415;-48
2023/08/31 00:58:35;;;;;;;372.87;334.17;;;;;;;;;;5072114;28;20467;-49
2023/08/31 01:01:01;;;;;;;347.17;310.00;;;;;;;;;;5071703;28;20403;-49
2023/08/31 01:03:46;;;;;;;369.67;330.67;;;;;;;;;;5071475;28;20526;-48
2023/08/31 01:06:47;;;;;;;359.90;321.90;;;;;;;;;;5071728;28;20419;-48
2023/08/31 01:09:13;;;;;;;369.43;330.97;;;;;;;;;;5048184;28;20412;-48
2023/08/31 01:11:42;;;;;;;360.10;322.20;;;;;;;;;;5059091;28;20824;-48
2023/08/31 01:14:11;;;;;;;351.30;313.93;;;;;;;;;;5071903;28;20455;-49
2023/08/31 01:16:38;;;;;;;359.23;320.93;;;;;;;;;;5071867;28;21014;-47
2023/08/31 01:19:06;;;;;;;352.80;315.00;;;;;;;;;;5071831;28;20409;-48
2023/08/31 01:21:39;;;;;;;362.97;324.93;;;;;;;;;;5071808;28;20412;-49
2023/08/31 01:24:06;;;;;;;366.97;328.80;;;;;;;;;;5077557;28;20957;-48
2023/08/31 01:26:33;;;;;;;378.63;339.47;;;;;;;;;;5072866;28;20997;-48
2023/08/31 01:28:59;;;;;;;370.03;331.23;;;;;;;;;;5071776;28;20422;-47
2023/08/31 01:31:25;;;;;;;357.90;319.93;;;;;;;;;;5071555;28;20767;-50
2023/08/31 01:33:51;;;;;;;364.03;325.83;;;;;;;;;;5071725;28;20513;-50
2023/08/31 01:36:23;;;;;;;360.47;322.37;;;;;;;;;;5071248;28;20404;-48
2023/08/31 01:38:51;;;;;;;363.63;325.40;;;;;;;;;;5071810;28;20401;-48
2023/08/31 01:41:18;;;;;;;358.13;319.07;;;;;;;;;;5068276;28;20408;-48
2023/08/31 01:43:44;;;;;;;307.70;247.17;;;;;;;;;;5071513;28;20455;-48
2023/08/31 01:46:10;;;;;;;281.30;193.90;;;;;;;;;;5071788;28;20504;-49
2023/08/31 01:48:40;;;;;;;313.70;259.50;;;;;;;;;;5071510;28;20483;-48
2023/08/31 01:51:07;;;;;;;323.83;277.03;;;;;;;;;;5071433;28;20464;-47
2023/08/31 01:53:34;;;;;;;331.27;289.50;;;;;;;;;;5071432;28;20437;-47
2023/08/31 01:56:00;;;;;;;333.10;294.50;;;;;;;;;;5071572;28;20507;-48
2023/08/31 01:58:26;;;;;;;336.83;299.80;;;;;;;;;;5071188;28;20496;-47
2023/08/31 02:00:52;;;;;;;338.87;301.90;;;;;;;;;;5071349;28;20404;-48
2023/08/31 02:03:18;;;;;;;332.53;295.47;;;;;;;;;;5071374;28;20423;-47
2023/08/31 02:05:44;;;;;;;335.40;298.40;;;;;;;;;;5071483;28;20446;-48
2023/08/31 02:08:10;;;;;;;335.27;298.87;;;;;;;;;;5071466;28;20471;-47
2023/08/31 02:10:35;;;;;;;325.27;287.30;;;;;;;;;;5071058;28;20409;-48
2023/08/31 02:13:01;;;;;;;336.60;299.90;;;;;;;;;;5071335;28;20436;-48
2023/08/31 02:15:27;;;;;;;329.33;293.13;;;;;;;;;;5071302;28;20444;-47
2023/08/31 02:17:54;;;;;;;330.10;291.37;;;;;;;;;;5071375;28;20459;-47
2023/08/31 02:20:20;;;;;;;343.10;306.13;;;;;;;;;;5071116;28;20482;-48
2023/08/31 02:22:46;;;;;;;332.27;295.60;;;;;;;;;;5071177;28;20841;-47
2023/08/31 02:25:13;;;;;;;323.30;287.40;;;;;;;;;;5071023;28;20410;-49
2023/08/31 02:27:39;;;;;;;330.10;293.90;;;;;;;;;;5062940;28;20410;-48
2023/08/31 02:30:06;;;;;;;329.73;293.50;;;;;;;;;;5071107;28;20406;-46
2023/08/31 02:32:32;;;;;;;334.73;298.17;;;;;;;;;;5070027;28;20899;-48
2023/08/31 02:34:58;;;;;;;327.87;290.60;;;;;;;;;;5071150;28;20444;-48
2023/08/31 02:37:24;;;;;;;328.90;292.50;;;;;;;;;;5071152;28;20475;-47
2023/08/31 02:39:50;;;;;;;329.60;289.80;;;;;;;;;;5070406;28;20408;-47
2023/08/31 02:42:16;;;;;;;332.90;296.53;;;;;;;;;;5070994;28;20977;-47
2023/08/31 02:44:42;;;;;;;332.70;295.80;;;;;;;;;;5071118;28;20902;-47
2023/08/31 02:47:08;;;;;;;329.30;292.93;;;;;;;;;;5071059;28;20779;-48
2023/08/31 02:49:34;;;;;;;330.13;293.77;;;;;;;;;;5073654;28;21001;-47
2023/08/31 02:52:00;;;;;;;325.57;287.33;;;;;;;;;;5074328;28;20439;-48
2023/08/31 02:54:26;;;;;;;324.50;287.70;;;;;;;;;;5073321;28;20521;-48
2023/08/31 02:56:52;;;;;;;328.07;291.13;;;;;;;;;;5074706;28;20463;-48
2023/08/31 02:59:18;;;;;;;314.43;269.37;;;;;;;;;;5074703;28;20407;-48
2023/08/31 03:01:46;;;;;;;298.50;221.47;;;;;;;;;;5073229;28;20950;-46
2023/08/31 03:04:12;;;;;;;309.07;242.33;;;;;;;;;;5074420;28;20431;-46
2023/08/31 03:06:38;;;;;;;314.87;246.57;;;;;;;;;;5074316;28;20409;-46
2023/08/31 03:09:04;;;;;;;315.93;258.27;;;;;;;;;;5074381;28;20505;-46
2023/08/31 03:11:31;;;;;;;313.57;255.87;;;;;;;;;;5074149;28;20416;-47
2023/08/31 03:13:57;;;;;;;330.23;272.23;;;;;;;;;;5074386;28;20421;-47
2023/08/31 03:16:23;;;;;;;317.67;263.70;;;;;;;;;;5074635;28;20770;-46
2023/08/31 03:18:49;;;;;;;320.60;267.63;;;;;;;;;;5074275;28;20413;-47
2023/08/31 03:21:14;;;;;;;318.77;269.33;;;;;;;;;;5074031;28;20419;-46
2023/08/31 03:23:40;;;;;;;327.10;279.13;;;;;;;;;;5072885;28;20433;-48
2023/08/31 03:26:07;;;;;;;323.57;271.97;;;;;;;;;;5074202;28;20467;-47
2023/08/31 03:28:34;;;;;;;320.53;269.30;;;;;;;;;;5074029;28;20906;-47
2023/08/31 03:31:01;;;;;;;323.40;269.03;;;;;;;;;;5074295;28;20415;-46
2023/08/31 03:33:28;;;;;;;317.37;259.63;;;;;;;;;;5073843;28;20428;-46
2023/08/31 03:35:54;;;;;;;323.53;271.53;;;;;;;;;;5073910;28;20762;-46
2023/08/31 03:38:20;;;;;;;322.20;267.83;;;;;;;;;;5073751;28;20497;-46
2023/08/31 03:40:55;;;;;;;320.93;272.30;;;;;;;;;;5073306;28;20406;-47
2023/08/31 03:43:22;;;;;;;317.27;266.37;;;;;;;;;;5073846;28;20435;-47
2023/08/31 03:45:48;;;;;;;318.33;266.77;;;;;;;;;;5073673;28;20953;-46
2023/08/31 03:48:14;;;;;;;319.33;273.33;;;;;;;;;;5073746;28;20755;-47
2023/08/31 03:50:40;;;;;;;319.53;272.17;;;;;;;;;;5073428;28;20425;-47
2023/08/31 03:53:06;;;;;;;318.57;270.87;;;;;;;;;;5073734;28;20442;-46
2023/08/31 03:55:32;;;;;;;317.40;266.50;;;;;;;;;;5073544;28;20417;-46
2023/08/31 03:57:58;;;;;;;320.67;265.90;;;;;;;;;;5073483;28;20458;-46
2023/08/31 04:00:24;;;;;;;326.10;262.87;;;;;;;;;;5072802;28;20403;-46
2023/08/31 04:02:50;;;;;;;318.63;268.27;;;;;;;;;;5073681;28;20561;-46
2023/08/31 04:05:16;;;;;;;319.27;265.70;;;;;;;;;;5073355;28;20419;-47
2023/08/31 04:07:42;;;;;;;317.93;264.40;;;;;;;;;;5073464;28;20412;-46
2023/08/31 04:10:08;;;;;;;321.10;271.70;;;;;;;;;;5073303;28;20409;-47
2023/08/31 04:12:34;;;;;;;317.27;264.57;;;;;;;;;;5073342;28;20941;-47
2023/08/31 04:15:00;;;;;;;327.47;259.43;;;;;;;;;;5073121;28;20408;-46
2023/08/31 04:17:26;;;;;;;323.73;272.73;;;;;;;;;;5073430;28;20882;-46
2023/08/31 04:19:52;;;;;;;325.27;262.60;;;;;;;;;;5072886;28;20435;-46
2023/08/31 04:22:18;;;;;;;322.03;270.27;;;;;;;;;;5072842;28;20410;-46
2023/08/31 04:24:44;;;;;;;321.00;272.00;;;;;;;;;;5078697;28;20403;-46
2023/08/31 04:27:10;;;;;;;324.53;273.73;;;;;;;;;;5073083;28;20497;-46
2023/08/31 04:29:37;;;;;;;334.33;281.60;;;;;;;;;;5072753;28;20813;-46
2023/08/31 04:32:04;;;;;;;320.37;268.20;;;;;;;;;;5073144;28;20925;-46
2023/08/31 04:34:30;;;;;;;319.37;263.80;;;;;;;;;;5073041;28;20481;-47
2023/08/31 04:36:56;;;;;;;321.73;265.10;;;;;;;;;;5072914;28;20911;-46
2023/08/31 04:39:22;;;;;;;323.20;263.27;;;;;;;;;;5072840;28;20888;-47
2023/08/31 04:41:47;;;;;;;319.50;266.57;;;;;;;;;;5072636;28;20938;-46
2023/08/31 04:44:13;;;;;;;336.77;282.93;;;;;;;;;;5073543;28;20474;-47
2023/08/31 04:46:39;;;;;;;323.83;265.23;;;;;;;;;;5072817;28;20428;-46
2023/08/31 04:49:05;;;;;;;325.07;270.57;;;;;;;;;;5072714;28;20398;-46
2023/08/31 04:51:33;;;;;;;325.87;269.77;;;;;;;;;;5072421;28;20422;-46
2023/08/31 04:53:59;;;;;;;323.97;272.37;;;;;;;;;;5072498;28;20415;-47
2023/08/31 04:56:25;;;;;;;327.70;277.23;;;;;;;;;;5072460;28;20404;-46
2023/08/31 04:58:51;;;;;;;325.70;262.97;;;;;;;;;;5072426;28;20407;-46
2023/08/31 05:01:17;;;;;;;327.00;269.53;;;;;;;;;;5072284;28;20407;-47
2023/08/31 05:03:44;;;;;;;324.83;264.67;;;;;;;;;;5072296;28;20472;-48
2023/08/31 05:06:10;;;;;;;316.27;256.80;;;;;;;;;;5072431;28;20398;-46
2023/08/31 05:08:36;;;;;;;321.40;271.80;;;;;;;;;;5072409;28;20417;-46
2023/08/31 05:11:02;;;;;;;323.43;271.33;;;;;;;;;;5071354;28;20440;-46
2023/08/31 05:13:28;;;;;;;326.73;275.53;;;;;;;;;;5072060;28;20445;-46
2023/08/31 05:15:54;;;;;;;323.73;269.30;;;;;;;;;;5072203;28;20896;-46
2023/08/31 05:18:21;;;;;;;319.30;258.63;;;;;;;;;;5072323;28;20953;-46
2023/08/31 05:20:48;;;;;;;322.43;272.37;;;;;;;;;;5072040;28;20409;-46
2023/08/31 05:23:14;;;;;;;318.50;259.53;;;;;;;;;;5072079;28;20911;-46
2023/08/31 05:25:44;;;;;;;322.37;269.23;;;;;;;;;;5071878;28;20405;-46
2023/08/31 05:28:10;;;;;;;328.60;268.60;;;;;;;;;;5072104;28;20407;-47
2023/08/31 05:30:36;;;;;;;331.50;275.40;;;;;;;;;;5071977;28;20419;-46
2023/08/31 05:33:03;;;;;;;323.63;268.10;;;;;;;;;;5072006;28;20422;-46
2023/08/31 05:35:29;;;;;;;324.23;259.90;;;;;;;;;;5072103;28;20399;-46
2023/08/31 05:37:55;;;;;;;320.27;256.80;;;;;;;;;;5071735;28;20985;-47
2023/08/31 05:40:23;;;;;;;321.70;260.03;;;;;;;;;;5071523;28;20407;-46
2023/08/31 05:42:49;;;;;;;321.93;264.53;;;;;;;;;;5071813;28;20427;-47
2023/08/31 05:45:15;;;;;;;321.07;258.57;;;;;;;;;;5071805;28;20892;-47
2023/08/31 05:47:41;;;;;;;318.40;259.57;;;;;;;;;;5071853;28;20502;-46
2023/08/31 05:50:07;;;;;;;312.43;250.13;;;;;;;;;;5071578;28;20973;-46
2023/08/31 05:52:33;;;;;;;310.87;251.77;;;;;;;;;;5071769;28;20422;-47
2023/08/31 05:54:59;;;;;;;314.80;255.73;;;;;;;;;;5071633;28;20444;-46
2023/08/31 05:57:27;;;;;;;317.27;256.63;;;;;;;;;;5071697;28;20455;-46
2023/08/31 05:59:53;;;;;;;327.07;267.93;;;;;;;;;;5071406;28;20414;-48
2023/08/31 06:02:19;;;;;;;314.47;260.67;;;;;;;;;;5071818;28;20399;-46
2023/08/31 06:04:45;;;;;;;317.63;267.47;;;;;;;;;;5071657;28;20407;-46
2023/08/31 06:07:11;;;;;;;313.00;260.40;;;;;;;;;;5071651;28;20418;-46
2023/08/31 06:09:37;;;;;;;319.20;271.37;;;;;;;;;;5071911;28;20805;-47
2023/08/31 06:12:04;;;;;;;316.23;263.10;;;;;;;;;;5071526;28;20872;-47
2023/08/31 06:14:30;;;;;;;331.77;295.00;;;;;;;;;;5071454;28;20950;-46
2023/08/31 06:16:56;;;;;;;313.17;263.93;;;;;;;;;;5071479;28;20498;-46
2023/08/31 06:19:21;;;;;;;316.07;266.33;;;;;;;;;;5071893;28;20408;-47
2023/08/31 06:21:48;;;;;;;314.73;262.97;;;;;;;;;;5071192;28;20411;-47
2023/08/31 06:24:15;;;;;;;319.40;278.03;;;;;;;;;;5075896;28;20951;-46
2023/08/31 06:26:42;;;;;;;319.77;275.07;;;;;;;;;;5075488;28;20426;-46
2023/08/31 06:29:10;;;;;;;316.87;260.30;;;;;;;;;;5075519;28;20404;-46
2023/08/31 06:31:36;;;;;;;314.83;272.80;;;;;;;;;;5075266;28;20407;-47
2023/08/31 06:34:04;;;;;;;313.20;268.70;;;;;;;;;;5075171;28;20544;-46
2023/08/31 06:36:29;;;;;;;309.17;263.00;;;;;;;;;;5075113;28;20403;-46
2023/08/31 06:38:55;;;;;;;309.00;263.33;;;;;;;;;;5075240;28;20408;-46
2023/08/31 06:41:21;;;;;;;317.63;278.77;;;;;;;;;;5075001;28;20482;-47
2023/08/31 06:43:47;;;;;;;317.87;273.17;;;;;;;;;;5075010;28;20424;-46
2023/08/31 06:46:14;;;;;;;327.60;286.67;;;;;;;;;;5075170;28;20900;-47
2023/08/31 06:48:40;;;;;;;319.03;283.33;;;;;;;;;;5070451;28;20432;-47
2023/08/31 06:51:06;;;;;;;316.57;273.23;;;;;;;;;;5080682;28;20432;-47
2023/08/31 06:53:32;;;;;;;319.90;283.37;;;;;;;;;;5074556;28;20491;-47
2023/08/31 06:55:58;;;;;;;317.17;281.67;;;;;;;;;;5073432;28;20408;-47
2023/08/31 06:58:24;;;;;;;316.07;276.50;;;;;;;;;;5074516;28;20466;-46
2023/08/31 07:00:51;;;;;;;313.57;277.00;;;;;;;;;;5074401;28;20428;-47
2023/08/31 07:03:17;;;;;;;310.83;266.07;;;;;;;;;;5074938;28;20423;-46
2023/08/31 07:05:43;;;;;;;315.60;277.83;;;;;;;;;;5074568;28;20403;-47
2023/08/31 07:08:09;;;;;;;313.43;268.00;;;;;;;;;;5070350;28;20782;-47
2023/08/31 07:10:38;;;;;;;311.90;276.87;;;;;;;;;;5074221;28;20411;-48
2023/08/31 07:13:05;;;;;;;314.77;273.10;;;;;;;;;;5074372;28;20489;-47
2023/08/31 07:15:31;;;;;;;337.87;301.80;;;;;;;;;;5074487;28;20450;-46
2023/08/31 07:17:57;;;;;;;347.23;310.43;;;;;;;;;;5074186;28;20518;-47
2023/08/31 07:20:23;;;;;;;355.50;318.30;;;;;;;;;;5074075;28;21071;-46
2023/08/31 07:22:49;;;;;;;379.90;341.40;;;;;;;;;;5074240;28;20416;-46
2023/08/31 07:25:15;;;;;;;412.33;371.83;;;;;;;;;;5074151;28;20410;-47
2023/08/31 07:27:41;;;;;;;409.67;368.77;;;;;;;;;;5074239;28;20443;-47
2023/08/31 07:30:07;;;;;;;425.10;382.53;;;;;;;;;;5074147;28;20823;-47
2023/08/31 07:32:33;;;;;;;420.60;379.57;;;;;;;;;;5074004;28;20499;-48
2023/08/31 07:34:59;;;;;;;462.93;419.23;;;;;;;;;;5073235;28;20587;-47
2023/08/31 07:37:26;;;;;;;461.17;417.07;;;;;;;;;;5073904;28;20458;-47
2023/08/31 07:39:52;;;;;;;447.20;404.03;;;;;;;;;;5073872;28;20881;-47
2023/08/31 07:42:18;;;;;;;434.30;392.53;;;;;;;;;;5073726;28;20456;-46
2023/08/31 07:44:44;;;;;;;444.57;401.37;;;;;;;;;;5073922;28;20414;-47
2023/08/31 07:47:10;;;;;;;423.77;383.17;;;;;;;;;;5072606;28;20410;-46
2023/08/31 07:49:36;;;;;;;408.30;368.00;;;;;;;;;;5073678;28;20415;-46
2023/08/31 07:52:03;;;;;;;396.80;357.87;;;;;;;;;;5073789;28;20450;-47
2023/08/31 07:54:29;;;;;;;405.27;365.73;;;;;;;;;;5073814;28;20431;-48
2023/08/31 07:56:55;;;;;;;409.27;369.53;;;;;;;;;;5073652;28;20513;-48
2023/08/31 07:59:21;;;;;;;395.90;356.13;;;;;;;;;;5073581;28;20412;-47
2023/08/31 08:01:47;;;;;;;411.80;371.20;;;;;;;;;;5073254;28;20484;-47
2023/08/31 08:04:13;;;;;;;367.07;329.83;;;;;;;;;;5072667;28;20870;-48
2023/08/31 08:06:40;;;;;;;422.80;381.70;;;;;;;;;;5072215;28;20915;-48
2023/08/31 08:09:06;;;;;;;401.90;361.80;;;;;;;;;;5073339;28;20400;-47
2023/08/31 08:11:35;;;;;;;354.07;317.27;;;;;;;;;;5070920;28;20435;-48
2023/08/31 08:14:00;;;;;;;371.87;334.30;;;;;;;;;;5073122;28;20433;-47
2023/08/31 08:16:27;;;;;;;346.00;309.23;;;;;;;;;;5074535;28;20412;-47
2023/08/31 08:18:52;;;;;;;335.13;300.03;;;;;;;;;;5090665;28;20459;-47
2023/08/31 08:21:18;;;;;;;319.43;285.03;;;;;;;;;;5073066;28;20427;-47
2023/08/31 08:23:44;;;;;;;292.00;234.70;;;;;;;;;;5072193;28;20519;-47
2023/08/31 08:26:10;;;;;;;294.23;255.27;;;;;;;;;;5073165;28;20499;-47
2023/08/31 08:28:36;;;;;;;292.30;254.27;;;;;;;;;;5073148;28;20814;-48
2023/08/31 08:31:03;;;;;;;284.40;226.33;;;;;;;;;;5072740;28;20798;-47
2023/08/31 08:33:29;;;;;;;275.67;210.40;;;;;;;;;;5072864;28;20424;-48
2023/08/31 08:35:58;;;;;;;270.73;200.17;;;;;;;;;;5072980;28;20454;-48
2023/08/31 08:38:24;;;;;;;263.00;179.07;;;;;;;;;;5072823;28;20558;-47
2023/08/31 08:40:50;;;;;;;254.80;167.37;;;;;;;;;;5072686;28;20488;-48
2023/08/31 08:43:19;;;;;;;257.50;166.40;;;;;;;;;;5068882;28;20954;-47
2023/08/31 08:45:48;;;;;;;253.27;163.07;;;;;;;;;;5062747;28;20885;-47
2023/08/31 08:48:14;;;;;;;250.97;148.70;;;;;;;;;;5072640;28;20400;-47
2023/08/31 08:50:40;;;;;;;249.37;146.90;;;;;;;;;;5072402;28;20420;-46
2023/08/31 08:53:06;;;;;;;249.50;148.73;;;;;;;;;;5091329;28;20488;-47
2023/08/31 08:55:33;;;;;;;251.17;146.20;;;;;;;;;;5093291;28;20806;-46
2023/08/31 08:58:00;;;;;;;248.77;147.07;;;;;;;;;;5093711;28;20451;-47
2023/08/31 09:00:27;;;;;;;249.00;154.40;;;;;;;;;;5093889;28;20404;-47
2023/08/31 09:02:53;;;;;;;249.33;141.07;;;;;;;;;;5094052;28;20408;-47
2023/08/31 09:05:19;;;;;;;246.93;137.23;;;;;;;;;;5093691;28;20400;-47
2023/08/31 09:08:01;;;;;;;243.77;139.43;;;;;;;;;;5082416;28;20436;-46
2023/08/31 09:10:37;;;;;;;243.47;131.47;;;;;;;;;;5071938;28;20416;-46
2023/08/31 09:13:13;;;;;;;239.23;126.10;;;;;;;;;;5072174;28;20481;-46
2023/08/31 09:15:44;;;;;;;247.07;137.07;;;;;;;;;;5072026;28;20415;-45
2023/08/31 09:18:16;;;;;;;232.77;126.33;;;;;;;;;;5072139;28;20513;-46
2023/08/31 09:20:45;;;;;;;243.73;127.30;;;;;;;;;;5071613;28;20490;-46
2023/08/31 09:23:12;;;;;;;250.27;138.70;;;;;;;;;;5071692;28;20474;-46
2023/08/31 09:25:44;;;;;;;245.70;126.13;;;;;;;;;;5074730;28;20458;-46
2023/08/31 09:28:10;;;;;;;241.67;126.00;;;;;;;;;;5076192;28;20408;-46
2023/08/31 09:30:37;;;;;;;245.57;129.70;;;;;;;;;;5071876;28;20410;-46
2023/08/31 09:33:04;;;;;;;242.70;127.37;;;;;;;;;;5071965;28;20431;-46
2023/08/31 09:35:30;;;;;;;237.63;122.53;;;;;;;;;;5070472;28;20449;-46
2023/08/31 09:37:59;;;;;;;239.17;120.43;;;;;;;;;;5071602;28;20482;-45
2023/08/31 09:40:25;;;;;;;238.83;118.27;;;;;;;;;;5071629;28;20442;-46
2023/08/31 09:42:51;;;;;;;241.60;119.50;;;;;;;;;;5071165;28;20419;-47
2023/08/31 09:45:18;;;;;;;235.20;112.53;;;;;;;;;;5071736;28;20399;-47
2023/08/31 09:47:44;;;;;;;238.47;117.47;;;;;;;;;;5071983;28;20408;-46
2023/08/31 09:50:10;;;;;;;240.10;116.73;;;;;;;;;;5071439;28;20458;-47
2023/08/31 09:52:38;;;;;;;238.67;117.47;;;;;;;;;;5071741;28;20460;-47
2023/08/31 09:55:04;;;;;;;239.10;118.60;;;;;;;;;;5072099;28;21047;-47
2023/08/31 09:57:31;;;;;;;238.80;121.00;;;;;;;;;;5071314;28;20510;-47
2023/08/31 09:59:57;;;;;;;241.40;123.77;;;;;;;;;;5071658;28;20411;-46
2023/08/31 10:02:23;;;;;;;238.20;116.63;;;;;;;;;;5071725;28;20403;-48
2023/08/31 10:04:52;;;;;;;238.40;119.07;;;;;;;;;;5071609;28;20490;-47
2023/08/31 10:07:18;;;;;;;238.40;119.47;;;;;;;;;;5071852;28;20400;-47
2023/08/31 10:09:44;;;;;;;239.97;116.27;;;;;;;;;;5071376;28;20502;-47
2023/08/31 10:12:10;;;;;;;235.17;116.07;;;;;;;;;;5071596;28;20423;-47
2023/08/31 10:14:36;;;;;;;238.30;118.27;;;;;;;;;;5071481;28;20420;-48
2023/08/31 10:17:03;;;;;;;236.80;114.10;;;;;;;;;;5071618;28;20948;-47
2023/08/31 10:19:29;;;;;;;239.37;114.43;;;;;;;;;;5071350;28;20400;-48
2023/08/31 10:22:00;;;;;;;242.73;118.03;;;;;;;;;;5070222;28;21270;-48
2023/08/31 10:24:44;;;;;;;238.00;115.30;;;;;;;;;;5091502;28;20408;-48
2023/08/31 10:27:19;;;;;;;238.23;118.83;;;;;;;;;;5091744;28;20456;-48
2023/08/31 10:29:45;;;;;;;240.07;118.67;;;;;;;;;;5091287;28;20399;-47
2023/08/31 10:32:18;;;;;;;239.70;119.67;;;;;;;;;;5091666;28;20396;-46
2023/08/31 10:34:46;;;;;;;238.53;116.47;;;;;;;;;;5091716;28;20388;-48
2023/08/31 10:37:22;;;;;;;236.57;114.53;;;;;;;;;;5091581;28;20455;-47
2023/08/31 10:39:48;;;;;;;238.50;115.03;;;;;;;;;;5091544;28;20399;-46
2023/08/31 10:42:14;;;;;;;235.53;113.03;;;;;;;;;;5091312;28;20478;-46
2023/08/31 10:44:43;;;;;;;238.90;114.97;;;;;;;;;;5091534;28;20424;-45
2023/08/31 10:47:09;;;;;;;237.77;116.97;;;;;;;;;;5085642;28;20914;-47
2023/08/31 10:49:36;;;;;;;240.93;116.20;;;;;;;;;;5068980;28;20437;-46
2023/08/31 10:52:18;;;;;;;234.47;111.70;;;;;;;;;;5070965;28;20918;-46
2023/08/31 10:54:44;;;;;;;238.60;113.23;;;;;;;;;;5071124;28;20510;-46
2023/08/31 10:57:12;;;;;;;237.20;112.43;;;;;;;;;;5071006;28;20459;-46
2023/08/31 10:59:56;;;;;;;240.63;117.77;;;;;;;;;;5070824;28;20407;-48
2023/08/31 11:02:35;;;;;;;240.77;114.37;;;;;;;;;;5071135;28;20483;-47
2023/08/31 11:05:14;;;;;;;238.37;116.23;;;;;;;;;;5070008;28;20403;-46
2023/08/31 11:07:44;;;;;;;235.27;111.53;;;;;;;;;;5071019;28;20411;-46
2023/08/31 11:10:10;;;;;;;233.07;112.50;;;;;;;;;;5072877;28;20495;-46
2023/08/31 11:12:36;;;;;;;236.53;114.90;;;;;;;;;;5074662;28;20519;-46
2023/08/31 11:15:05;;;;;;;237.47;117.43;;;;;;;;;;5074508;28;20400;-45
2023/08/31 11:17:35;;;;;;;238.23;117.80;;;;;;;;;;5074338;28;20443;-46
2023/08/31 11:20:05;;;;;;;240.47;118.63;;;;;;;;;;5074145;28;20415;-46
2023/08/31 11:22:32;;;;;;;235.00;109.93;;;;;;;;;;5074431;28;20779;-45
2023/08/31 11:24:57;;;;;;;235.73;115.47;;;;;;;;;;5074505;28;20423;-45
2023/08/31 11:27:23;;;;;;;237.63;116.57;;;;;;;;;;5074357;28;20405;-45
2023/08/31 11:29:49;;;;;;;240.17;120.60;;;;;;;;;;5074125;28;20443;-45
2023/08/31 11:32:15;;;;;;;238.17;119.93;;;;;;;;;;5074179;28;20392;-45
2023/08/31 11:34:42;;;;;;;236.97;118.07;;;;;;;;;;5074122;28;20404;-45
2023/08/31 11:37:09;;;;;;;236.07;117.13;;;;;;;;;;5074072;28;20448;-45
2023/08/31 11:39:35;;;;;;;235.13;113.20;;;;;;;;;;5074039;28;20491;-45
2023/08/31 11:42:00;;;;;;;231.57;110.63;;;;;;;;;;5074117;28;20435;-46
2023/08/31 11:44:27;;;;;;;235.17;115.17;;;;;;;;;;5073890;28;20424;-47
2023/08/31 11:46:53;;;;;;;234.37;115.00;;;;;;;;;;5073963;28;20405;-47
2023/08/31 11:49:19;;;;;;;230.90;107.77;;;;;;;;;;5074173;28;20495;-46
2023/08/31 11:51:46;;;;;;;232.27;115.33;;;;;;;;;;5079633;28;20459;-46
2023/08/31 11:54:11;;;;;;;230.93;112.30;;;;;;;;;;5094342;28;20456;-45
2023/08/31 11:56:42;;;;;;;232.33;111.57;;;;;;;;;;5094195;28;20864;-46
2023/08/31 11:59:09;;;;;;;229.37;108.23;;;;;;;;;;5094016;28;20438;-45
2023/08/31 12:01:38;;;;;;;231.83;110.13;;;;;;;;;;5093775;28;20391;-46
2023/08/31 12:04:10;;;;;;;233.40;109.80;;;;;;;;;;5093878;28;20481;-46
2023/08/31 12:06:35;;;;;;;226.77;104.43;;;;;;;;;;5093952;28;20394;-45
2023/08/31 12:09:04;;;;;;;228.50;103.43;;;;;;;;;;5093956;28;20384;-47
2023/08/31 12:11:30;;;;;;;230.53;105.00;;;;;;;;;;5072396;28;20413;-46
2023/08/31 12:13:59;;;;;;;230.13;105.20;;;;;;;;;;5068595;28;20428;-46
2023/08/31 12:16:32;;;;;;;234.10;108.57;;;;;;;;;;5072746;28;20388;-46
2023/08/31 12:18:59;;;;;;;234.67;106.93;;;;;;;;;;5073182;28;20456;-46
2023/08/31 12:21:25;;;;;;;232.17;107.00;;;;;;;;;;5072817;28;20406;-46
2023/08/31 12:23:51;;;;;;;234.30;111.13;;;;;;;;;;5072954;28;20434;-48
2023/08/31 12:26:17;;;;;;;231.57;111.50;;;;;;;;;;5073320;28;20452;-46
2023/08/31 12:28:43;;;;;;;229.87;108.50;;;;;;;;;;5073075;28;20445;-46
2023/08/31 12:31:09;;;;;;;228.97;105.97;;;;;;;;;;5072998;28;20410;-46
2023/08/31 12:33:35;;;;;;;232.50;106.97;;;;;;;;;;5072973;28;20476;-46
2023/08/31 12:36:01;;;;;;;232.17;106.97;;;;;;;;;;5073107;28;20430;-45
2023/08/31 12:38:28;;;;;;;231.27;107.03;;;;;;;;;;5072899;28;20458;-45
2023/08/31 12:40:54;;;;;;;232.67;105.53;;;;;;;;;;5072702;28;20400;-46
2023/08/31 12:43:20;;;;;;;231.07;104.43;;;;;;;;;;5072751;28;20424;-46
2023/08/31 12:45:46;;;;;;;229.93;102.53;;;;;;;;;;5072743;28;20392;-46
2023/08/31 12:48:13;;;;;;;234.07;107.93;;;;;;;;;;5072795;28;20814;-45
2023/08/31 12:50:39;;;;;;;230.07;106.13;;;;;;;;;;5072417;28;20506;-46
2023/08/31 12:53:04;;;;;;;229.60;105.87;;;;;;;;;;5089818;28;20886;-46
2023/08/31 12:55:30;;;;;;;227.37;103.33;;;;;;;;;;5092963;28;20833;-46
2023/08/31 12:57:57;;;;;;;229.07;110.83;;;;;;;;;;5092694;28;20862;-46
2023/08/31 13:00:23;;;;;;;228.37;106.13;;;;;;;;;;5092735;28;20400;-47
2023/08/31 13:02:51;;;;;;;229.13;107.67;;;;;;;;;;5092928;28;20427;-46
2023/08/31 13:05:17;;;;;;;230.20;109.17;;;;;;;;;;5091255;28;20862;-46
2023/08/31 13:07:43;;;;;;;226.83;106.63;;;;;;;;;;5060849;28;20404;-46
2023/08/31 13:10:09;;;;;;;228.60;107.77;;;;;;;;;;5072162;28;20494;-45
2023/08/31 13:12:35;;;;;;;231.93;110.73;;;;;;;;;;5072536;28;20396;-46
2023/08/31 13:15:02;;;;;;;231.80;112.43;;;;;;;;;;5072266;28;20393;-46
2023/08/31 13:17:28;;;;;;;235.17;116.23;;;;;;;;;;5072044;28;20979;-46
2023/08/31 13:19:54;;;;;;;241.70;120.47;;;;;;;;;;5070862;28;20766;-47
2023/08/31 13:22:21;;;;;;;232.17;112.80;;;;;;;;;;5070441;28;20470;-47
2023/08/31 13:24:47;;;;;;;227.87;111.13;;;;;;;;;;5071920;28;20396;-46
2023/08/31 13:27:13;;;;;;;229.40;111.27;;;;;;;;;;5071049;28;20498;-46
2023/08/31 13:29:39;;;;;;;229.83;111.27;;;;;;;;;;5071877;28;20400;-46
2023/08/31 13:32:07;;;;;;;225.93;103.63;;;;;;;;;;5071548;28;20976;-47
2023/08/31 13:34:33;;;;;;;226.37;106.00;;;;;;;;;;5071747;28;20495;-45
2023/08/31 13:36:59;;;;;;;227.47;108.53;;;;;;;;;;5071981;28;20405;-46
2023/08/31 13:39:26;;;;;;;234.30;111.13;;;;;;;;;;5071886;28;20972;-46
2023/08/31 13:41:52;;;;;;;231.23;113.03;;;;;;;;;;5071906;28;20397;-46
2023/08/31 13:44:21;;;;;;;229.57;111.03;;;;;;;;;;5071859;28;20943;-46
2023/08/31 13:46:50;;;;;;;228.73;113.13;;;;;;;;;;5071948;28;20400;-46
2023/08/31 13:49:16;;;;;;;231.20;112.50;;;;;;;;;;5071863;28;20389;-46
2023/08/31 13:51:42;;;;;;;229.80;109.40;;;;;;;;;;5077077;28;20419;-47